sensor_id;sensor_type;location;lat;lon;timestamp;P1;durP1;ratioP1;P2;durP2;ratioP2
34102;SDS011;20381;54.498;18.206;2022-08-19T00:00:30;12.03;;;8.68;;
34102;SDS011;20381;54.498;18.206;2022-08-19T00:02:59;10.28;;;7.60;;
34102;SDS011;20381;54.498;18.206;2022-08-19T00:05:26;11.45;;;8.03;;
34102;SDS011;20381;54.498;18.206;2022-08-19T00:07:52;15.85;;;7.50;;
34102;SDS011;20381;54.498;18.206;2022-08-19T00:10:19;9.28;;;6.97;;
34102;SDS011;20381;54.498;18.206;2022-08-19T00:12:46;11.30;;;7.37;;
34102;SDS011;20381;54.498;18.206;2022-08-19T00:15:15;15.45;;;8.13;;
34102;SDS011;20381;54.498;18.206;2022-08-19T00:17:44;11.43;;;7.70;;
34102;SDS011;20381;54.498;18.206;2022-08-19T00:20:13;11.75;;;7.72;;
34102;SDS011;20381;54.498;18.206;2022-08-19T00:22:43;7.78;;;6.90;;
34102;SDS011;20381;54.498;18.206;2022-08-19T00:25:11;10.00;;;7.90;;
34102;SDS011;20381;54.498;18.206;2022-08-19T00:27:38;9.88;;;7.28;;
34102;SDS011;20381;54.498;18.206;2022-08-19T00:30:06;9.68;;;7.80;;
34102;SDS011;20381;54.498;18.206;2022-08-19T00:32:35;12.47;;;8.38;;
34102;SDS011;20381;54.498;18.206;2022-08-19T00:35:03;14.75;;;8.88;;
34102;SDS011;20381;54.498;18.206;2022-08-19T00:37:30;12.23;;;8.48;;
34102;SDS011;20381;54.498;18.206;2022-08-19T00:39:58;10.80;;;8.08;;
34102;SDS011;20381;54.498;18.206;2022-08-19T00:42:25;11.65;;;8.18;;
34102;SDS011;20381;54.498;18.206;2022-08-19T00:44:54;10.68;;;8.43;;
34102;SDS011;20381;54.498;18.206;2022-08-19T00:47:20;12.30;;;8.78;;
34102;SDS011;20381;54.498;18.206;2022-08-19T00:49:48;13.08;;;8.88;;
34102;SDS011;20381;54.498;18.206;2022-08-19T00:52:23;10.40;;;8.03;;
34102;SDS011;20381;54.498;18.206;2022-08-19T00:54:54;10.78;;;8.73;;
34102;SDS011;20381;54.498;18.206;2022-08-19T00:57:25;11.05;;;8.70;;
34102;SDS011;20381;54.498;18.206;2022-08-19T01:00:00;13.05;;;8.15;;
34102;SDS011;20381;54.498;18.206;2022-08-19T01:02:30;13.15;;;8.45;;
34102;SDS011;20381;54.498;18.206;2022-08-19T01:04:58;11.85;;;8.20;;
34102;SDS011;20381;54.498;18.206;2022-08-19T01:07:28;13.30;;;8.63;;
34102;SDS011;20381;54.498;18.206;2022-08-19T01:09:55;9.40;;;7.17;;
34102;SDS011;20381;54.498;18.206;2022-08-19T01:12:22;9.10;;;7.72;;
34102;SDS011;20381;54.498;18.206;2022-08-19T01:17:16;9.40;;;8.08;;
34102;SDS011;20381;54.498;18.206;2022-08-19T01:19:44;13.70;;;9.20;;
34102;SDS011;20381;54.498;18.206;2022-08-19T01:24:56;16.10;;;8.75;;
34102;SDS011;20381;54.498;18.206;2022-08-19T01:27:23;12.47;;;8.60;;
34102;SDS011;20381;54.498;18.206;2022-08-19T01:29:50;13.18;;;9.00;;
34102;SDS011;20381;54.498;18.206;2022-08-19T01:34:44;10.43;;;7.72;;
34102;SDS011;20381;54.498;18.206;2022-08-19T01:37:12;12.78;;;7.50;;
34102;SDS011;20381;54.498;18.206;2022-08-19T01:39:40;11.20;;;8.18;;
34102;SDS011;20381;54.498;18.206;2022-08-19T01:42:08;10.88;;;8.08;;
34102;SDS011;20381;54.498;18.206;2022-08-19T01:44:37;10.13;;;7.17;;
34102;SDS011;20381;54.498;18.206;2022-08-19T01:47:07;10.50;;;7.10;;
34102;SDS011;20381;54.498;18.206;2022-08-19T01:49:35;9.23;;;7.03;;
34102;SDS011;20381;54.498;18.206;2022-08-19T01:52:03;10.08;;;7.30;;
34102;SDS011;20381;54.498;18.206;2022-08-19T01:54:30;14.58;;;8.70;;
34102;SDS011;20381;54.498;18.206;2022-08-19T01:57:00;9.10;;;7.85;;
34102;SDS011;20381;54.498;18.206;2022-08-19T01:59:32;8.75;;;7.80;;
34102;SDS011;20381;54.498;18.206;2022-08-19T02:04:26;14.28;;;8.13;;
34102;SDS011;20381;54.498;18.206;2022-08-19T02:06:52;10.58;;;7.95;;
34102;SDS011;20381;54.498;18.206;2022-08-19T02:09:19;14.40;;;8.10;;
34102;SDS011;20381;54.498;18.206;2022-08-19T02:11:45;11.03;;;8.05;;
34102;SDS011;20381;54.498;18.206;2022-08-19T02:14:12;13.05;;;8.33;;
34102;SDS011;20381;54.498;18.206;2022-08-19T02:16:39;8.83;;;7.83;;
34102;SDS011;20381;54.498;18.206;2022-08-19T02:19:06;10.50;;;8.58;;
34102;SDS011;20381;54.498;18.206;2022-08-19T02:21:32;12.45;;;7.90;;
34102;SDS011;20381;54.498;18.206;2022-08-19T02:26:26;11.45;;;8.85;;
34102;SDS011;20381;54.498;18.206;2022-08-19T02:28:53;13.93;;;8.00;;
34102;SDS011;20381;54.498;18.206;2022-08-19T02:33:49;14.60;;;8.58;;
34102;SDS011;20381;54.498;18.206;2022-08-19T02:36:16;11.85;;;7.80;;
34102;SDS011;20381;54.498;18.206;2022-08-19T02:38:43;13.32;;;8.53;;
34102;SDS011;20381;54.498;18.206;2022-08-19T02:43:40;12.25;;;8.35;;
34102;SDS011;20381;54.498;18.206;2022-08-19T02:46:16;8.55;;;7.67;;
34102;SDS011;20381;54.498;18.206;2022-08-19T02:48:44;11.88;;;8.30;;
34102;SDS011;20381;54.498;18.206;2022-08-19T02:51:15;13.68;;;8.83;;
34102;SDS011;20381;54.498;18.206;2022-08-19T02:53:48;9.50;;;8.30;;
34102;SDS011;20381;54.498;18.206;2022-08-19T02:56:15;9.98;;;7.78;;
34102;SDS011;20381;54.498;18.206;2022-08-19T02:58:43;11.05;;;7.90;;
34102;SDS011;20381;54.498;18.206;2022-08-19T03:01:10;8.95;;;7.28;;
34102;SDS011;20381;54.498;18.206;2022-08-19T03:03:39;10.80;;;7.62;;
34102;SDS011;20381;54.498;18.206;2022-08-19T03:06:08;9.53;;;8.50;;
34102;SDS011;20381;54.498;18.206;2022-08-19T03:08:38;13.58;;;7.47;;
34102;SDS011;20381;54.498;18.206;2022-08-19T03:11:12;14.85;;;8.33;;
34102;SDS011;20381;54.498;18.206;2022-08-19T03:13:48;15.50;;;8.25;;
34102;SDS011;20381;54.498;18.206;2022-08-19T03:16:16;10.03;;;7.72;;
34102;SDS011;20381;54.498;18.206;2022-08-19T03:18:44;12.37;;;7.78;;
34102;SDS011;20381;54.498;18.206;2022-08-19T03:21:17;9.23;;;6.85;;
34102;SDS011;20381;54.498;18.206;2022-08-19T03:23:48;8.40;;;7.25;;
34102;SDS011;20381;54.498;18.206;2022-08-19T03:26:15;17.52;;;8.53;;
34102;SDS011;20381;54.498;18.206;2022-08-19T03:28:42;15.90;;;7.83;;
34102;SDS011;20381;54.498;18.206;2022-08-19T03:31:12;26.85;;;9.03;;
34102;SDS011;20381;54.498;18.206;2022-08-19T03:33:40;10.58;;;7.83;;
34102;SDS011;20381;54.498;18.206;2022-08-19T03:38:45;11.90;;;8.08;;
34102;SDS011;20381;54.498;18.206;2022-08-19T03:41:17;11.48;;;8.30;;
34102;SDS011;20381;54.498;18.206;2022-08-19T03:43:53;27.40;;;8.60;;
34102;SDS011;20381;54.498;18.206;2022-08-19T03:46:24;12.28;;;8.73;;
34102;SDS011;20381;54.498;18.206;2022-08-19T03:48:53;12.80;;;9.03;;
34102;SDS011;20381;54.498;18.206;2022-08-19T03:51:23;13.78;;;8.60;;
34102;SDS011;20381;54.498;18.206;2022-08-19T03:53:54;15.15;;;8.70;;
34102;SDS011;20381;54.498;18.206;2022-08-19T03:56:21;16.05;;;8.93;;
34102;SDS011;20381;54.498;18.206;2022-08-19T03:58:50;13.78;;;8.80;;
34102;SDS011;20381;54.498;18.206;2022-08-19T04:01:19;10.85;;;8.05;;
34102;SDS011;20381;54.498;18.206;2022-08-19T04:03:48;11.35;;;7.67;;
34102;SDS011;20381;54.498;18.206;2022-08-19T04:06:17;14.90;;;8.38;;
34102;SDS011;20381;54.498;18.206;2022-08-19T04:08:47;11.53;;;8.33;;
34102;SDS011;20381;54.498;18.206;2022-08-19T04:11:18;12.40;;;8.08;;
34102;SDS011;20381;54.498;18.206;2022-08-19T04:13:49;15.55;;;7.92;;
34102;SDS011;20381;54.498;18.206;2022-08-19T04:16:17;13.43;;;8.43;;
34102;SDS011;20381;54.498;18.206;2022-08-19T04:18:46;12.88;;;7.45;;
34102;SDS011;20381;54.498;18.206;2022-08-19T04:21:15;13.70;;;7.70;;
34102;SDS011;20381;54.498;18.206;2022-08-19T04:23:46;12.37;;;8.13;;
34102;SDS011;20381;54.498;18.206;2022-08-19T04:26:13;16.67;;;8.13;;
34102;SDS011;20381;54.498;18.206;2022-08-19T04:28:44;11.05;;;7.80;;
34102;SDS011;20381;54.498;18.206;2022-08-19T04:31:15;7.60;;;6.75;;
34102;SDS011;20381;54.498;18.206;2022-08-19T04:33:45;12.10;;;7.75;;
34102;SDS011;20381;54.498;18.206;2022-08-19T04:36:20;11.10;;;8.18;;
34102;SDS011;20381;54.498;18.206;2022-08-19T04:38:56;11.75;;;8.05;;
34102;SDS011;20381;54.498;18.206;2022-08-19T04:41:28;11.18;;;7.55;;
34102;SDS011;20381;54.498;18.206;2022-08-19T04:44:13;10.43;;;7.58;;
34102;SDS011;20381;54.498;18.206;2022-08-19T04:46:42;13.22;;;7.22;;
34102;SDS011;20381;54.498;18.206;2022-08-19T04:49:13;12.98;;;6.92;;
34102;SDS011;20381;54.498;18.206;2022-08-19T04:51:39;14.75;;;8.08;;
34102;SDS011;20381;54.498;18.206;2022-08-19T04:54:08;13.80;;;7.72;;
34102;SDS011;20381;54.498;18.206;2022-08-19T04:56:35;11.18;;;7.20;;
34102;SDS011;20381;54.498;18.206;2022-08-19T04:59:02;9.80;;;6.80;;
34102;SDS011;20381;54.498;18.206;2022-08-19T05:01:30;10.90;;;6.50;;
34102;SDS011;20381;54.498;18.206;2022-08-19T05:03:59;12.65;;;6.87;;
34102;SDS011;20381;54.498;18.206;2022-08-19T05:06:27;14.80;;;7.22;;
34102;SDS011;20381;54.498;18.206;2022-08-19T05:08:54;13.05;;;6.45;;
34102;SDS011;20381;54.498;18.206;2022-08-19T05:11:23;11.08;;;6.17;;
34102;SDS011;20381;54.498;18.206;2022-08-19T05:13:53;12.68;;;6.78;;
34102;SDS011;20381;54.498;18.206;2022-08-19T05:16:21;12.47;;;6.00;;
34102;SDS011;20381;54.498;18.206;2022-08-19T05:18:50;11.73;;;6.05;;
34102;SDS011;20381;54.498;18.206;2022-08-19T05:21:35;7.67;;;5.92;;
34102;SDS011;20381;54.498;18.206;2022-08-19T05:24:21;7.17;;;5.72;;
34102;SDS011;20381;54.498;18.206;2022-08-19T05:26:49;9.48;;;5.55;;
34102;SDS011;20381;54.498;18.206;2022-08-19T05:29:19;10.72;;;5.55;;
34102;SDS011;20381;54.498;18.206;2022-08-19T05:31:47;6.15;;;5.50;;
34102;SDS011;20381;54.498;18.206;2022-08-19T05:34:16;8.95;;;5.75;;
34102;SDS011;20381;54.498;18.206;2022-08-19T05:36:46;8.63;;;5.60;;
34102;SDS011;20381;54.498;18.206;2022-08-19T05:39:15;7.03;;;5.28;;
34102;SDS011;20381;54.498;18.206;2022-08-19T05:41:46;12.85;;;5.50;;
34102;SDS011;20381;54.498;18.206;2022-08-19T05:44:16;21.97;;;6.03;;
34102;SDS011;20381;54.498;18.206;2022-08-19T05:46:43;9.68;;;5.22;;
34102;SDS011;20381;54.498;18.206;2022-08-19T05:49:15;7.90;;;5.12;;
34102;SDS011;20381;54.498;18.206;2022-08-19T05:51:42;7.53;;;5.12;;
34102;SDS011;20381;54.498;18.206;2022-08-19T05:54:09;12.30;;;5.60;;
34102;SDS011;20381;54.498;18.206;2022-08-19T05:56:37;7.42;;;5.47;;
34102;SDS011;20381;54.498;18.206;2022-08-19T05:59:05;7.92;;;5.87;;
34102;SDS011;20381;54.498;18.206;2022-08-19T06:01:35;14.25;;;5.75;;
34102;SDS011;20381;54.498;18.206;2022-08-19T06:04:06;9.83;;;5.72;;
34102;SDS011;20381;54.498;18.206;2022-08-19T06:06:33;20.40;;;6.33;;
34102;SDS011;20381;54.498;18.206;2022-08-19T06:09:02;14.63;;;6.10;;
34102;SDS011;20381;54.498;18.206;2022-08-19T06:11:34;11.12;;;6.17;;
34102;SDS011;20381;54.498;18.206;2022-08-19T06:14:06;10.90;;;6.50;;
34102;SDS011;20381;54.498;18.206;2022-08-19T06:16:39;9.10;;;6.37;;
34102;SDS011;20381;54.498;18.206;2022-08-19T06:19:09;9.50;;;6.37;;
34102;SDS011;20381;54.498;18.206;2022-08-19T06:21:39;11.90;;;6.60;;
34102;SDS011;20381;54.498;18.206;2022-08-19T06:24:11;9.00;;;6.75;;
34102;SDS011;20381;54.498;18.206;2022-08-19T06:26:41;11.85;;;6.83;;
34102;SDS011;20381;54.498;18.206;2022-08-19T06:29:11;12.53;;;7.03;;
34102;SDS011;20381;54.498;18.206;2022-08-19T06:31:45;12.85;;;7.37;;
34102;SDS011;20381;54.498;18.206;2022-08-19T06:34:15;12.25;;;6.97;;
34102;SDS011;20381;54.498;18.206;2022-08-19T06:36:44;18.07;;;7.28;;
34102;SDS011;20381;54.498;18.206;2022-08-19T06:39:15;12.75;;;7.22;;
34102;SDS011;20381;54.498;18.206;2022-08-19T06:41:46;13.60;;;6.85;;
34102;SDS011;20381;54.498;18.206;2022-08-19T06:44:16;9.65;;;6.75;;
34102;SDS011;20381;54.498;18.206;2022-08-19T06:46:45;12.82;;;7.17;;
34102;SDS011;20381;54.498;18.206;2022-08-19T06:49:14;8.85;;;7.03;;
34102;SDS011;20381;54.498;18.206;2022-08-19T06:51:43;8.73;;;6.65;;
34102;SDS011;20381;54.498;18.206;2022-08-19T06:54:14;12.98;;;6.20;;
34102;SDS011;20381;54.498;18.206;2022-08-19T06:56:42;18.45;;;6.33;;
34102;SDS011;20381;54.498;18.206;2022-08-19T06:59:12;14.50;;;7.08;;
34102;SDS011;20381;54.498;18.206;2022-08-19T07:01:44;9.93;;;5.97;;
34102;SDS011;20381;54.498;18.206;2022-08-19T07:04:15;9.93;;;6.37;;
34102;SDS011;20381;54.498;18.206;2022-08-19T07:06:45;11.05;;;6.28;;
34102;SDS011;20381;54.498;18.206;2022-08-19T07:09:13;10.50;;;6.83;;
34102;SDS011;20381;54.498;18.206;2022-08-19T07:11:46;12.33;;;6.20;;
34102;SDS011;20381;54.498;18.206;2022-08-19T07:14:16;11.08;;;6.03;;
34102;SDS011;20381;54.498;18.206;2022-08-19T07:16:46;14.15;;;6.33;;
34102;SDS011;20381;54.498;18.206;2022-08-19T07:19:15;9.28;;;6.03;;
34102;SDS011;20381;54.498;18.206;2022-08-19T07:21:43;8.48;;;6.15;;
34102;SDS011;20381;54.498;18.206;2022-08-19T07:24:09;10.20;;;6.50;;
34102;SDS011;20381;54.498;18.206;2022-08-19T07:26:39;10.95;;;6.25;;
34102;SDS011;20381;54.498;18.206;2022-08-19T07:29:08;12.82;;;6.25;;
34102;SDS011;20381;54.498;18.206;2022-08-19T07:31:36;9.05;;;6.62;;
34102;SDS011;20381;54.498;18.206;2022-08-19T07:34:04;9.08;;;6.53;;
34102;SDS011;20381;54.498;18.206;2022-08-19T07:36:36;15.48;;;7.25;;
34102;SDS011;20381;54.498;18.206;2022-08-19T07:39:07;12.30;;;6.95;;
34102;SDS011;20381;54.498;18.206;2022-08-19T07:41:37;10.90;;;7.20;;
34102;SDS011;20381;54.498;18.206;2022-08-19T07:44:05;11.53;;;7.58;;
34102;SDS011;20381;54.498;18.206;2022-08-19T07:46:35;26.15;;;6.80;;
34102;SDS011;20381;54.498;18.206;2022-08-19T07:49:06;15.43;;;7.72;;
34102;SDS011;20381;54.498;18.206;2022-08-19T07:51:35;13.20;;;7.33;;
34102;SDS011;20381;54.498;18.206;2022-08-19T07:56:29;12.07;;;7.83;;
34102;SDS011;20381;54.498;18.206;2022-08-19T07:58:56;8.93;;;5.72;;
34102;SDS011;20381;54.498;18.206;2022-08-19T08:01:24;11.12;;;6.50;;
34102;SDS011;20381;54.498;18.206;2022-08-19T08:03:53;8.43;;;7.17;;
34102;SDS011;20381;54.498;18.206;2022-08-19T08:06:40;10.40;;;5.67;;
34102;SDS011;20381;54.498;18.206;2022-08-19T08:09:31;10.95;;;7.08;;
34102;SDS011;20381;54.498;18.206;2022-08-19T08:12:02;10.78;;;6.58;;
34102;SDS011;20381;54.498;18.206;2022-08-19T08:14:33;15.70;;;6.20;;
34102;SDS011;20381;54.498;18.206;2022-08-19T08:17:04;11.28;;;6.42;;
34102;SDS011;20381;54.498;18.206;2022-08-19T08:19:32;11.18;;;6.42;;
34102;SDS011;20381;54.498;18.206;2022-08-19T08:21:59;17.10;;;6.30;;
34102;SDS011;20381;54.498;18.206;2022-08-19T08:24:27;10.20;;;6.28;;
34102;SDS011;20381;54.498;18.206;2022-08-19T08:26:57;11.43;;;6.67;;
34102;SDS011;20381;54.498;18.206;2022-08-19T08:29:25;9.48;;;6.05;;
34102;SDS011;20381;54.498;18.206;2022-08-19T08:31:55;10.18;;;6.10;;
34102;SDS011;20381;54.498;18.206;2022-08-19T08:34:22;8.30;;;5.90;;
34102;SDS011;20381;54.498;18.206;2022-08-19T08:36:49;16.10;;;6.20;;
34102;SDS011;20381;54.498;18.206;2022-08-19T08:39:19;13.58;;;6.10;;
34102;SDS011;20381;54.498;18.206;2022-08-19T08:44:48;17.07;;;6.30;;
34102;SDS011;20381;54.498;18.206;2022-08-19T08:47:21;7.72;;;5.37;;
34102;SDS011;20381;54.498;18.206;2022-08-19T08:49:53;7.70;;;5.47;;
34102;SDS011;20381;54.498;18.206;2022-08-19T08:52:25;14.80;;;6.12;;
34102;SDS011;20381;54.498;18.206;2022-08-19T08:54:55;11.57;;;6.22;;
34102;SDS011;20381;54.498;18.206;2022-08-19T08:57:27;6.62;;;5.05;;
34102;SDS011;20381;54.498;18.206;2022-08-19T09:02:55;7.72;;;5.45;;
34102;SDS011;20381;54.498;18.206;2022-08-19T09:05:23;10.60;;;6.00;;
34102;SDS011;20381;54.498;18.206;2022-08-19T09:08:15;14.63;;;6.30;;
34102;SDS011;20381;54.498;18.206;2022-08-19T09:11:04;12.55;;;6.22;;
34102;SDS011;20381;54.498;18.206;2022-08-19T09:16:36;11.60;;;5.70;;
34102;SDS011;20381;54.498;18.206;2022-08-19T09:19:05;10.28;;;5.95;;
34102;SDS011;20381;54.498;18.206;2022-08-19T09:21:33;9.60;;;5.70;;
34102;SDS011;20381;54.498;18.206;2022-08-19T09:24:01;11.03;;;6.90;;
34102;SDS011;20381;54.498;18.206;2022-08-19T09:26:30;14.30;;;6.17;;
34102;SDS011;20381;54.498;18.206;2022-08-19T09:28:58;9.08;;;6.03;;
34102;SDS011;20381;54.498;18.206;2022-08-19T09:31:28;7.78;;;6.15;;
34102;SDS011;20381;54.498;18.206;2022-08-19T09:33:56;8.58;;;5.95;;
34102;SDS011;20381;54.498;18.206;2022-08-19T09:36:23;12.43;;;5.45;;
34102;SDS011;20381;54.498;18.206;2022-08-19T09:38:52;11.45;;;6.35;;
34102;SDS011;20381;54.498;18.206;2022-08-19T09:41:21;12.33;;;6.00;;
34102;SDS011;20381;54.498;18.206;2022-08-19T09:43:51;9.70;;;6.15;;
34102;SDS011;20381;54.498;18.206;2022-08-19T09:46:21;10.53;;;6.30;;
34102;SDS011;20381;54.498;18.206;2022-08-19T09:48:49;12.68;;;6.25;;
34102;SDS011;20381;54.498;18.206;2022-08-19T09:51:19;8.50;;;5.80;;
34102;SDS011;20381;54.498;18.206;2022-08-19T09:53:51;17.35;;;5.80;;
34102;SDS011;20381;54.498;18.206;2022-08-19T09:56:22;11.93;;;5.53;;
34102;SDS011;20381;54.498;18.206;2022-08-19T09:58:49;9.83;;;5.20;;
34102;SDS011;20381;54.498;18.206;2022-08-19T10:03:46;10.78;;;4.78;;
34102;SDS011;20381;54.498;18.206;2022-08-19T10:06:18;10.03;;;4.92;;
34102;SDS011;20381;54.498;18.206;2022-08-19T10:08:45;8.80;;;5.42;;
34102;SDS011;20381;54.498;18.206;2022-08-19T10:11:12;8.43;;;5.75;;
34102;SDS011;20381;54.498;18.206;2022-08-19T10:13:42;9.60;;;5.87;;
34102;SDS011;20381;54.498;18.206;2022-08-19T10:16:15;9.88;;;5.12;;
34102;SDS011;20381;54.498;18.206;2022-08-19T10:18:41;8.65;;;5.62;;
34102;SDS011;20381;54.498;18.206;2022-08-19T10:21:30;8.43;;;5.35;;
34102;SDS011;20381;54.498;18.206;2022-08-19T10:23:44;9.03;;;4.78;;
34102;SDS011;20381;54.498;18.206;2022-08-19T10:26:14;13.58;;;5.03;;
34102;SDS011;20381;54.498;18.206;2022-08-19T10:28:44;10.40;;;6.30;;
34102;SDS011;20381;54.498;18.206;2022-08-19T10:31:20;10.43;;;5.78;;
34102;SDS011;20381;54.498;18.206;2022-08-19T10:33:46;16.45;;;5.80;;
34102;SDS011;20381;54.498;18.206;2022-08-19T10:36:15;11.80;;;6.03;;
34102;SDS011;20381;54.498;18.206;2022-08-19T10:38:49;8.78;;;5.58;;
34102;SDS011;20381;54.498;18.206;2022-08-19T10:41:22;10.08;;;5.67;;
34102;SDS011;20381;54.498;18.206;2022-08-19T10:43:52;8.85;;;5.40;;
34102;SDS011;20381;54.498;18.206;2022-08-19T10:46:22;11.73;;;5.45;;
34102;SDS011;20381;54.498;18.206;2022-08-19T10:48:52;12.98;;;5.62;;
34102;SDS011;20381;54.498;18.206;2022-08-19T10:51:21;8.33;;;5.47;;
34102;SDS011;20381;54.498;18.206;2022-08-19T10:54:06;11.12;;;5.28;;
34102;SDS011;20381;54.498;18.206;2022-08-19T10:56:33;16.00;;;4.97;;
34102;SDS011;20381;54.498;18.206;2022-08-19T10:59:23;8.98;;;5.30;;
34102;SDS011;20381;54.498;18.206;2022-08-19T11:01:53;13.60;;;5.20;;
34102;SDS011;20381;54.498;18.206;2022-08-19T11:04:25;9.58;;;4.45;;
34102;SDS011;20381;54.498;18.206;2022-08-19T11:06:52;9.45;;;4.97;;
34102;SDS011;20381;54.498;18.206;2022-08-19T11:09:20;9.23;;;4.45;;
34102;SDS011;20381;54.498;18.206;2022-08-19T11:11:55;6.40;;;4.30;;
34102;SDS011;20381;54.498;18.206;2022-08-19T11:14:22;9.48;;;5.20;;
34102;SDS011;20381;54.498;18.206;2022-08-19T11:16:51;16.07;;;4.80;;
34102;SDS011;20381;54.498;18.206;2022-08-19T11:19:21;11.33;;;5.03;;
34102;SDS011;20381;54.498;18.206;2022-08-19T11:21:50;14.95;;;5.20;;
34102;SDS011;20381;54.498;18.206;2022-08-19T11:24:20;10.63;;;4.70;;
34102;SDS011;20381;54.498;18.206;2022-08-19T11:26:50;12.15;;;5.22;;
34102;SDS011;20381;54.498;18.206;2022-08-19T11:29:21;7.22;;;5.12;;
34102;SDS011;20381;54.498;18.206;2022-08-19T11:31:50;9.18;;;5.47;;
34102;SDS011;20381;54.498;18.206;2022-08-19T11:34:27;7.72;;;4.80;;
34102;SDS011;20381;54.498;18.206;2022-08-19T11:36:58;8.60;;;5.42;;
34102;SDS011;20381;54.498;18.206;2022-08-19T11:39:27;6.75;;;5.03;;
34102;SDS011;20381;54.498;18.206;2022-08-19T11:41:57;12.23;;;5.53;;
34102;SDS011;20381;54.498;18.206;2022-08-19T11:44:25;11.75;;;5.40;;
34102;SDS011;20381;54.498;18.206;2022-08-19T11:46:54;8.93;;;5.03;;
34102;SDS011;20381;54.498;18.206;2022-08-19T11:49:21;13.38;;;5.15;;
34102;SDS011;20381;54.498;18.206;2022-08-19T11:51:48;7.37;;;4.95;;
34102;SDS011;20381;54.498;18.206;2022-08-19T11:54:17;9.95;;;5.50;;
34102;SDS011;20381;54.498;18.206;2022-08-19T11:56:44;11.08;;;4.83;;
34102;SDS011;20381;54.498;18.206;2022-08-19T11:59:11;8.15;;;4.80;;
34102;SDS011;20381;54.498;18.206;2022-08-19T12:01:39;10.95;;;5.50;;
34102;SDS011;20381;54.498;18.206;2022-08-19T12:04:07;5.75;;;4.60;;
34102;SDS011;20381;54.498;18.206;2022-08-19T12:06:37;8.35;;;4.50;;
34102;SDS011;20381;54.498;18.206;2022-08-19T12:09:07;12.68;;;4.90;;
34102;SDS011;20381;54.498;18.206;2022-08-19T12:11:37;11.35;;;5.10;;
34102;SDS011;20381;54.498;18.206;2022-08-19T12:14:06;8.40;;;5.37;;
34102;SDS011;20381;54.498;18.206;2022-08-19T12:16:36;10.40;;;4.70;;
34102;SDS011;20381;54.498;18.206;2022-08-19T12:19:04;15.40;;;4.80;;
34102;SDS011;20381;54.498;18.206;2022-08-19T12:21:33;11.88;;;5.03;;
34102;SDS011;20381;54.498;18.206;2022-08-19T12:24:02;15.32;;;5.25;;
34102;SDS011;20381;54.498;18.206;2022-08-19T12:26:31;7.35;;;4.50;;
34102;SDS011;20381;54.498;18.206;2022-08-19T12:29:02;8.80;;;4.53;;
34102;SDS011;20381;54.498;18.206;2022-08-19T12:31:30;16.20;;;4.83;;
34102;SDS011;20381;54.498;18.206;2022-08-19T12:33:57;10.68;;;5.53;;
34102;SDS011;20381;54.498;18.206;2022-08-19T12:36:24;13.65;;;5.30;;
34102;SDS011;20381;54.498;18.206;2022-08-19T12:38:51;8.43;;;4.70;;
34102;SDS011;20381;54.498;18.206;2022-08-19T12:41:18;11.33;;;5.25;;
34102;SDS011;20381;54.498;18.206;2022-08-19T12:43:47;18.17;;;4.80;;
34102;SDS011;20381;54.498;18.206;2022-08-19T12:46:16;12.93;;;5.15;;
34102;SDS011;20381;54.498;18.206;2022-08-19T12:48:44;12.55;;;4.70;;
34102;SDS011;20381;54.498;18.206;2022-08-19T12:51:14;10.78;;;5.05;;
34102;SDS011;20381;54.498;18.206;2022-08-19T12:53:45;10.13;;;5.58;;
34102;SDS011;20381;54.498;18.206;2022-08-19T12:56:13;8.50;;;5.08;;
34102;SDS011;20381;54.498;18.206;2022-08-19T12:58:44;5.85;;;4.55;;
34102;SDS011;20381;54.498;18.206;2022-08-19T13:01:14;9.80;;;4.67;;
34102;SDS011;20381;54.498;18.206;2022-08-19T13:03:41;12.70;;;5.62;;
34102;SDS011;20381;54.498;18.206;2022-08-19T13:06:10;8.63;;;5.17;;
34102;SDS011;20381;54.498;18.206;2022-08-19T13:08:38;8.68;;;5.33;;
34102;SDS011;20381;54.498;18.206;2022-08-19T13:11:06;10.68;;;5.80;;
34102;SDS011;20381;54.498;18.206;2022-08-19T13:13:38;12.10;;;6.17;;
34102;SDS011;20381;54.498;18.206;2022-08-19T13:16:12;15.23;;;6.08;;
34102;SDS011;20381;54.498;18.206;2022-08-19T13:18:39;11.35;;;5.05;;
34102;SDS011;20381;54.498;18.206;2022-08-19T13:21:09;12.90;;;5.65;;
34102;SDS011;20381;54.498;18.206;2022-08-19T13:23:39;18.62;;;5.95;;
34102;SDS011;20381;54.498;18.206;2022-08-19T13:26:07;10.80;;;5.33;;
34102;SDS011;20381;54.498;18.206;2022-08-19T13:28:35;14.13;;;4.87;;
34102;SDS011;20381;54.498;18.206;2022-08-19T13:31:22;11.08;;;5.67;;
34102;SDS011;20381;54.498;18.206;2022-08-19T13:34:08;20.17;;;6.03;;
34102;SDS011;20381;54.498;18.206;2022-08-19T13:36:36;9.85;;;5.60;;
34102;SDS011;20381;54.498;18.206;2022-08-19T13:39:04;9.55;;;5.42;;
34102;SDS011;20381;54.498;18.206;2022-08-19T13:41:33;14.20;;;5.70;;
34102;SDS011;20381;54.498;18.206;2022-08-19T13:44:00;6.33;;;5.00;;
34102;SDS011;20381;54.498;18.206;2022-08-19T13:46:32;11.12;;;5.92;;
34102;SDS011;20381;54.498;18.206;2022-08-19T13:48:58;9.28;;;5.53;;
34102;SDS011;20381;54.498;18.206;2022-08-19T13:51:25;11.90;;;5.45;;
34102;SDS011;20381;54.498;18.206;2022-08-19T13:53:52;8.73;;;5.72;;
34102;SDS011;20381;54.498;18.206;2022-08-19T13:56:19;10.70;;;5.87;;
34102;SDS011;20381;54.498;18.206;2022-08-19T13:58:46;12.75;;;5.70;;
34102;SDS011;20381;54.498;18.206;2022-08-19T14:01:18;14.85;;;5.60;;
34102;SDS011;20381;54.498;18.206;2022-08-19T14:03:48;15.28;;;6.17;;
34102;SDS011;20381;54.498;18.206;2022-08-19T14:06:15;11.63;;;5.95;;
34102;SDS011;20381;54.498;18.206;2022-08-19T14:08:42;10.08;;;5.42;;
34102;SDS011;20381;54.498;18.206;2022-08-19T14:11:09;14.15;;;6.25;;
34102;SDS011;20381;54.498;18.206;2022-08-19T14:13:41;10.18;;;5.37;;
34102;SDS011;20381;54.498;18.206;2022-08-19T14:16:09;14.98;;;5.30;;
34102;SDS011;20381;54.498;18.206;2022-08-19T14:18:38;11.65;;;5.97;;
34102;SDS011;20381;54.498;18.206;2022-08-19T14:21:06;15.03;;;5.95;;
34102;SDS011;20381;54.498;18.206;2022-08-19T14:23:34;8.88;;;5.67;;
34102;SDS011;20381;54.498;18.206;2022-08-19T14:26:09;10.70;;;5.67;;
34102;SDS011;20381;54.498;18.206;2022-08-19T14:28:40;10.70;;;5.58;;
34102;SDS011;20381;54.498;18.206;2022-08-19T14:31:15;8.45;;;5.12;;
34102;SDS011;20381;54.498;18.206;2022-08-19T14:33:41;12.53;;;5.05;;
34102;SDS011;20381;54.498;18.206;2022-08-19T14:36:08;8.43;;;4.90;;
34102;SDS011;20381;54.498;18.206;2022-08-19T14:38:34;11.43;;;5.80;;
34102;SDS011;20381;54.498;18.206;2022-08-19T14:41:18;7.83;;;5.50;;
34102;SDS011;20381;54.498;18.206;2022-08-19T14:43:48;11.12;;;5.53;;
34102;SDS011;20381;54.498;18.206;2022-08-19T14:46:18;18.98;;;5.42;;
34102;SDS011;20381;54.498;18.206;2022-08-19T14:48:49;33.63;;;6.35;;
34102;SDS011;20381;54.498;18.206;2022-08-19T14:51:17;13.38;;;5.65;;
34102;SDS011;20381;54.498;18.206;2022-08-19T14:53:49;9.55;;;4.58;;
34102;SDS011;20381;54.498;18.206;2022-08-19T14:56:18;11.35;;;5.28;;
34102;SDS011;20381;54.498;18.206;2022-08-19T14:58:48;9.70;;;5.37;;
34102;SDS011;20381;54.498;18.206;2022-08-19T15:01:17;11.68;;;5.00;;
34102;SDS011;20381;54.498;18.206;2022-08-19T15:03:48;13.95;;;5.33;;
34102;SDS011;20381;54.498;18.206;2022-08-19T15:06:18;7.47;;;5.30;;
34102;SDS011;20381;54.498;18.206;2022-08-19T15:08:47;9.75;;;6.12;;
34102;SDS011;20381;54.498;18.206;2022-08-19T15:11:16;10.68;;;5.25;;
34102;SDS011;20381;54.498;18.206;2022-08-19T15:13:47;8.93;;;5.28;;